This is the latest recevied weather packets stored in our database for station/object KC1BRV. If no packets are shown the sender has not sent any weather packets the latest 10 day(s).
| Time | Temp. | Humidity | Pressure | Rain* | Wind** | Luminosity | Snow |
|---|---|---|---|---|---|---|---|
| 1788193645 | 23.89° C | 62% | 1021.5 hPa | 0 mm | - | 283 W/m² | - |
| 1788193343 | 23.89° C | 64% | 1021.6 hPa | 0 mm | - | 351 W/m² | - |
| 1788193039 | 24.44° C | 62% | 1021.7 hPa | 0 mm | - | 190 W/m² | - |
| 1788192735 | 24.44° C | 62% | 1021.6 hPa | 0 mm | - | 382 W/m² | - |
| 1788192434 | 25° C | 63% | 1021.7 hPa | 0 mm | - | 221 W/m² | - |
| 1788192130 | 25° C | 62% | 1021.6 hPa | 0 mm | - | 721 W/m² | - |
| 1788191829 | 24.44° C | 65% | 1021.7 hPa | 0 mm | - | 812 W/m² | - |
| 1788191525 | 24.44° C | 66% | 1021.7 hPa | 0 mm | - | 710 W/m² | - |
| 1788191220 | 24.44° C | 65% | 1021.6 hPa | 0 mm | - | 780 W/m² | - |
| 1788190916 | 24.44° C | 62% | 1021.8 hPa | 0 mm | - | 788 W/m² | - |
| 1788190615 | 23.89° C | 69% | 1021.8 hPa | 0 mm | - | 751 W/m² | - |
| 1788190311 | 25° C | 67% | 1021.8 hPa | 0 mm | - | 143 W/m² | - |
| 1788190006 | 25° C | 65% | 1021.8 hPa | 0 mm | - | 297 W/m² | - |
| 1788189703 | 24.44° C | 66% | 1022.1 hPa | 0 mm | - | 633 W/m² | - |
| 1788189403 | 23.89° C | 65% | 1021.7 hPa | 0 mm | - | 639 W/m² | - |
| 1788189096 | 23.89° C | 69% | 1021.9 hPa | 0 mm | - | 547 W/m² | - |
| 1788188792 | 23.89° C | 68% | 1021.9 hPa | 0 mm | - | 633 W/m² | - |
| 1788188488 | 23.33° C | 73% | 1021.9 hPa | 0 mm | - | 617 W/m² | - |
| 1788188187 | 23.33° C | 74% | 1021.8 hPa | 0 mm | - | 616 W/m² | - |
| 1788187884 | 22.78° C | 73% | 1021.9 hPa | 0 mm | - | 602 W/m² | - |
| 1788187579 | 22.22° C | 77% | 1021.9 hPa | 0 mm | - | 624 W/m² | - |
| 1788187275 | 22.22° C | 80% | 1021.9 hPa | 0 mm | - | 596 W/m² | - |
| 1788186974 | 21.67° C | 81% | 1022 hPa | 0 mm | - | 574 W/m² | - |
| 1788186670 | 20.56° C | 87% | 1021.9 hPa | 0 mm | - | 575 W/m² | - |
| 1788186367 | 20° C | 87% | 1021.8 hPa | 0 mm | - | 558 W/m² | - |
* Rain latest hour (hover to see other rain measurements)
** Current wind speed in m/s (hover to see current wind gust speed)